PWSweather.com
Personal Weather Stations
Station Observations
OINOFYTA
Oinofyta Greece, OinofytaGR 320 11

Oinofyta GreeceOinofytaGR 320 11

Lat: 38.3080648, Lon: 23.6391172

Elevation: 354

Station Type: ProWeatherStation 1080

https://oinofytaweather.gr/

High Low Average
Temperature 51.1°F10.6°C 35.8°F2.1°C 44.7°F7.1°C
Dew Point 37.4°F3.0°C 29.8°F-1.2°C 32.6°F0.3°C
Winds 12.0 mph 19.3 kmh Calm Calm 4.0 mph WSW6.4 kmh WSW
Wind Gusts 28.9 mph46.5 kmh 1.6 mph2.6 kmh 11.0 mph17.7 kmh
Humidity 81% 48% 63%
Pressure 30.43 in1030.5 mb 30.32 in1026.8 mb -
Precipitation 0.00 in0.0 mm - -
Hour Temp Dew Point Humidity Winds Wind Gusts Pressure Precip Precip Rate Daily Precip Total
12:00 AM 46.4°F8.0°C 33.3°F0.7°C 60% 8.5 mph NW13.7 kmh NW 21.3 mph34.3 kmh 30.32 in1026.8 mb 0.00 in0.0 mm 0.00 in0.0 mm 0.00 in0.0 mm
12:05 AM 46.4°F8.0°C 32.9°F0.5°C 59% 9.0 mph NW14.5 kmh NW 19.0 mph30.6 kmh 30.32 in1026.8 mb 0.00 in0.0 mm 0.00 in0.0 mm 0.00 in0.0 mm
12:10 AM 46.2°F7.9°C 32.7°F0.4°C 59% 9.0 mph NW14.5 kmh NW 17.4 mph28.0 kmh 30.32 in1026.8 mb 0.00 in0.0 mm 0.00 in0.0 mm 0.00 in0.0 mm
12:15 AM 46.2°F7.9°C 32.7°F0.4°C 59% 8.6 mph NNW13.8 kmh NNW 17.4 mph28.0 kmh 30.32 in1026.8 mb 0.00 in0.0 mm 0.00 in0.0 mm 0.00 in0.0 mm
12:20 AM 46.0°F7.8°C 32.5°F0.3°C 59% 8.7 mph NW14.0 kmh NW 17.4 mph28.0 kmh 30.32 in1026.8 mb 0.00 in0.0 mm 0.00 in0.0 mm 0.00 in0.0 mm
12:25 AM 46.0°F7.8°C 32.5°F0.3°C 59% 8.2 mph NW13.2 kmh NW 17.4 mph28.0 kmh 30.32 in1026.8 mb 0.00 in0.0 mm 0.00 in0.0 mm 0.00 in0.0 mm
12:30 AM 45.9°F7.7°C 32.8°F0.4°C 60% 7.7 mph NW12.4 kmh NW 15.9 mph25.6 kmh 30.33 in1027.1 mb 0.00 in0.0 mm 0.00 in0.0 mm 0.00 in0.0 mm
12:35 AM 45.9°F7.7°C 32.8°F0.4°C 60% 9.4 mph NW15.1 kmh NW 23.5 mph37.8 kmh 30.33 in1027.1 mb 0.00 in0.0 mm 0.00 in0.0 mm 0.00 in0.0 mm
12:40 AM 45.9°F7.7°C 32.8°F0.4°C 60% 11.2 mph NW18.0 kmh NW 23.5 mph37.8 kmh 30.32 in1026.8 mb 0.00 in0.0 mm 0.00 in0.0 mm 0.00 in0.0 mm
12:45 AM 45.9°F7.7°C 32.8°F0.4°C 60% 10.4 mph NW16.7 kmh NW 23.5 mph37.8 kmh 30.33 in1027.1 mb 0.00 in0.0 mm 0.00 in0.0 mm 0.00 in0.0 mm
12:50 AM 45.9°F7.7°C 32.8°F0.4°C 60% 10.4 mph NW16.7 kmh NW 21.3 mph34.3 kmh 30.33 in1027.1 mb 0.00 in0.0 mm 0.00 in0.0 mm 0.00 in0.0 mm
12:55 AM 45.9°F7.7°C 32.4°F0.2°C 59% 10.3 mph NW16.6 kmh NW 21.3 mph34.3 kmh 30.33 in1027.1 mb 0.00 in0.0 mm 0.00 in0.0 mm 0.00 in0.0 mm
01:00 AM 45.7°F7.6°C 32.2°F0.1°C 59% 9.4 mph NW15.1 kmh NW 18.3 mph29.5 kmh 30.33 in1027.1 mb 0.00 in0.0 mm 0.00 in0.0 mm 0.00 in0.0 mm
01:05 AM 45.5°F7.5°C 32.0°F0.0°C 59% 9.4 mph NW15.1 kmh NW 23.5 mph37.8 kmh 30.33 in1027.1 mb 0.00 in0.0 mm 0.00 in0.0 mm 0.00 in0.0 mm
01:10 AM 45.7°F7.6°C 32.2°F0.1°C 59% 11.0 mph NW17.7 kmh NW 23.5 mph37.8 kmh 30.33 in1027.1 mb 0.00 in0.0 mm 0.00 in0.0 mm 0.00 in0.0 mm
01:15 AM 45.7°F7.6°C 32.2°F0.1°C 59% 12.0 mph NW19.3 kmh NW 23.5 mph37.8 kmh 30.33 in1027.1 mb 0.00 in0.0 mm 0.00 in0.0 mm 0.00 in0.0 mm
01:20 AM 45.5°F7.5°C 32.0°F0.0°C 59% 9.9 mph NW15.9 kmh NW 22.1 mph35.6 kmh 30.33 in1027.1 mb 0.00 in0.0 mm 0.00 in0.0 mm 0.00 in0.0 mm
01:25 AM 45.5°F7.5°C 32.0°F0.0°C 59% 8.1 mph NW13.0 kmh NW 22.1 mph35.6 kmh 30.33 in1027.1 mb 0.00 in0.0 mm 0.00 in0.0 mm 0.00 in0.0 mm
01:30 AM 45.3°F7.4°C 31.8°F-0.1°C 59% 7.0 mph NW11.3 kmh NW 15.9 mph25.6 kmh 30.33 in1027.1 mb 0.00 in0.0 mm 0.00 in0.0 mm 0.00 in0.0 mm
01:35 AM 45.0°F7.2°C 31.9°F-0.1°C 60% 6.0 mph NW9.7 kmh NW 15.2 mph24.5 kmh 30.33 in1027.1 mb 0.00 in0.0 mm 0.00 in0.0 mm 0.00 in0.0 mm
01:40 AM 45.0°F7.2°C 31.5°F-0.3°C 59% 5.9 mph WNW9.5 kmh WNW 13.0 mph20.9 kmh 30.33 in1027.1 mb 0.00 in0.0 mm 0.00 in0.0 mm 0.00 in0.0 mm
01:45 AM 44.8°F7.1°C 31.3°F-0.4°C 59% 6.3 mph NW10.1 kmh NW 14.5 mph23.3 kmh 30.33 in1027.1 mb 0.00 in0.0 mm 0.00 in0.0 mm 0.00 in0.0 mm
01:50 AM 44.8°F7.1°C 31.3°F-0.4°C 59% 6.2 mph NW10.0 kmh NW 14.5 mph23.3 kmh 30.33 in1027.1 mb 0.00 in0.0 mm 0.00 in0.0 mm 0.00 in0.0 mm
01:55 AM 44.8°F7.1°C 31.3°F-0.4°C 59% 5.0 mph NW8.0 kmh NW 13.6 mph21.9 kmh 30.33 in1027.1 mb 0.00 in0.0 mm 0.00 in0.0 mm 0.00 in0.0 mm
02:00 AM 44.8°F7.1°C 31.3°F-0.4°C 59% 3.8 mph WNW6.1 kmh WNW 12.1 mph19.5 kmh 30.34 in1027.4 mb 0.00 in0.0 mm 0.00 in0.0 mm 0.00 in0.0 mm
02:05 AM 45.0°F7.2°C 31.5°F-0.3°C 59% 3.8 mph WNW6.1 kmh WNW 13.0 mph20.9 kmh 30.34 in1027.4 mb 0.00 in0.0 mm 0.00 in0.0 mm 0.00 in0.0 mm
02:10 AM 45.0°F7.2°C 31.9°F-0.1°C 60% 3.4 mph NW5.5 kmh NW 13.0 mph20.9 kmh 30.34 in1027.4 mb 0.00 in0.0 mm 0.00 in0.0 mm 0.00 in0.0 mm
02:15 AM 45.0°F7.2°C 32.3°F0.2°C 61% 2.4 mph WNW3.9 kmh WNW 8.3 mph13.4 kmh 30.34 in1027.4 mb 0.00 in0.0 mm 0.00 in0.0 mm 0.00 in0.0 mm
02:20 AM 45.0°F7.2°C 31.9°F-0.1°C 60% 2.5 mph WNW4.0 kmh WNW 6.9 mph11.1 kmh 30.35 in1027.8 mb 0.00 in0.0 mm 0.00 in0.0 mm 0.00 in0.0 mm
02:25 AM 45.0°F7.2°C 32.3°F0.2°C 61% 2.4 mph NW3.9 kmh NW 6.9 mph11.1 kmh 30.35 in1027.8 mb 0.00 in0.0 mm 0.00 in0.0 mm 0.00 in0.0 mm
02:30 AM 45.0°F7.2°C 32.3°F0.2°C 61% 2.9 mph NW4.7 kmh NW 10.7 mph17.2 kmh 30.35 in1027.8 mb 0.00 in0.0 mm 0.00 in0.0 mm 0.00 in0.0 mm
02:35 AM 45.3°F7.4°C 32.7°F0.4°C 61% 5.2 mph NW8.4 kmh NW 13.6 mph21.9 kmh 30.35 in1027.8 mb 0.00 in0.0 mm 0.00 in0.0 mm 0.00 in0.0 mm
02:40 AM 45.5°F7.5°C 33.6°F0.9°C 63% 8.4 mph NNW13.5 kmh NNW 28.9 mph46.5 kmh 30.35 in1027.8 mb 0.00 in0.0 mm 0.00 in0.0 mm 0.00 in0.0 mm
02:45 AM 45.1°F7.3°C 34.5°F1.4°C 66% 11.1 mph N17.9 kmh N 28.9 mph46.5 kmh 30.35 in1027.8 mb 0.00 in0.0 mm 0.00 in0.0 mm 0.00 in0.0 mm
02:50 AM 44.4°F6.9°C 35.3°F1.8°C 70% 10.3 mph N16.6 kmh N 28.9 mph46.5 kmh 30.35 in1027.8 mb 0.00 in0.0 mm 0.00 in0.0 mm 0.00 in0.0 mm
02:55 AM 44.1°F6.7°C 36.0°F2.2°C 73% 8.9 mph N14.3 kmh N 19.7 mph31.7 kmh 30.35 in1027.8 mb 0.00 in0.0 mm 0.00 in0.0 mm 0.00 in0.0 mm
03:00 AM 43.9°F6.6°C 36.1°F2.3°C 74% 9.6 mph N15.4 kmh N 19.7 mph31.7 kmh 30.35 in1027.8 mb 0.00 in0.0 mm 0.00 in0.0 mm 0.00 in0.0 mm
03:05 AM 43.9°F6.6°C 36.1°F2.3°C 74% 9.6 mph NNE15.4 kmh NNE 19.7 mph31.7 kmh 30.35 in1027.8 mb 0.00 in0.0 mm 0.00 in0.0 mm 0.00 in0.0 mm
03:10 AM 43.7°F6.5°C 36.3°F2.4°C 75% 8.2 mph NE13.2 kmh NE 19.7 mph31.7 kmh 30.35 in1027.8 mb 0.00 in0.0 mm 0.00 in0.0 mm 0.00 in0.0 mm
03:15 AM 43.7°F6.5°C 36.6°F2.6°C 76% 7.3 mph NE11.7 kmh NE 19.7 mph31.7 kmh 30.36 in1028.1 mb 0.00 in0.0 mm 0.00 in0.0 mm 0.00 in0.0 mm
03:20 AM 43.7°F6.5°C 36.6°F2.6°C 76% 6.8 mph N10.9 kmh N 13.6 mph21.9 kmh 30.35 in1027.8 mb 0.00 in0.0 mm 0.00 in0.0 mm 0.00 in0.0 mm
03:25 AM 43.5°F6.4°C 36.5°F2.5°C 76% 5.7 mph N9.2 kmh N 13.0 mph20.9 kmh 30.36 in1028.1 mb 0.00 in0.0 mm 0.00 in0.0 mm 0.00 in0.0 mm
03:30 AM 43.7°F6.5°C 37.0°F2.8°C 77% 5.7 mph NNE9.2 kmh NNE 12.1 mph19.5 kmh 30.36 in1028.1 mb 0.00 in0.0 mm 0.00 in0.0 mm 0.00 in0.0 mm
03:35 AM 43.7°F6.5°C 37.0°F2.8°C 77% 6.1 mph NE9.8 kmh NE 12.1 mph19.5 kmh 30.36 in1028.1 mb 0.00 in0.0 mm 0.00 in0.0 mm 0.00 in0.0 mm
03:40 AM 43.7°F6.5°C 37.0°F2.8°C 77% 5.8 mph NE9.3 kmh NE 11.4 mph18.3 kmh 30.36 in1028.1 mb 0.00 in0.0 mm 0.00 in0.0 mm 0.00 in0.0 mm
03:45 AM 43.5°F6.4°C 37.1°F2.8°C 78% 4.9 mph NE7.9 kmh NE 9.8 mph15.8 kmh 30.36 in1028.1 mb 0.00 in0.0 mm 0.00 in0.0 mm 0.00 in0.0 mm
03:50 AM 43.5°F6.4°C 37.4°F3.0°C 79% 4.1 mph NNE6.6 kmh NNE 9.8 mph15.8 kmh 30.35 in1027.8 mb 0.00 in0.0 mm 0.00 in0.0 mm 0.00 in0.0 mm
03:55 AM 43.5°F6.4°C 37.4°F3.0°C 79% 3.7 mph N6.0 kmh N 9.2 mph14.8 kmh 30.35 in1027.8 mb 0.00 in0.0 mm 0.00 in0.0 mm 0.00 in0.0 mm
04:00 AM 43.3°F6.3°C 37.3°F2.9°C 79% 3.0 mph N4.8 kmh N 8.3 mph13.4 kmh 30.35 in1027.8 mb 0.00 in0.0 mm 0.00 in0.0 mm 0.00 in0.0 mm
04:05 AM 43.5°F6.4°C 37.1°F2.8°C 78% 2.2 mph N3.5 kmh N 5.4 mph8.7 kmh 30.35 in1027.8 mb 0.00 in0.0 mm 0.00 in0.0 mm 0.00 in0.0 mm
04:10 AM 43.5°F6.4°C 36.5°F2.5°C 76% 2.3 mph N3.7 kmh N 6.0 mph9.7 kmh 30.35 in1027.8 mb 0.00 in0.0 mm 0.00 in0.0 mm 0.00 in0.0 mm
04:15 AM 43.7°F6.5°C 36.0°F2.2°C 74% 3.1 mph N5.0 kmh N 10.7 mph17.2 kmh 30.35 in1027.8 mb 0.00 in0.0 mm 0.00 in0.0 mm 0.00 in0.0 mm
04:20 AM 43.9°F6.6°C 35.8°F2.1°C 73% 4.5 mph NNE7.2 kmh NNE 11.4 mph18.3 kmh 30.36 in1028.1 mb 0.00 in0.0 mm 0.00 in0.0 mm 0.00 in0.0 mm
04:25 AM 44.1°F6.7°C 36.0°F2.2°C 73% 4.7 mph N7.6 kmh N 11.4 mph18.3 kmh 30.36 in1028.1 mb 0.00 in0.0 mm 0.00 in0.0 mm 0.00 in0.0 mm
04:30 AM 44.2°F6.8°C 35.4°F1.9°C 71% 5.5 mph NNW8.9 kmh NNW 16.8 mph27.0 kmh 30.36 in1028.1 mb 0.00 in0.0 mm 0.00 in0.0 mm 0.00 in0.0 mm
04:35 AM 44.4°F6.9°C 34.5°F1.4°C 68% 7.4 mph NW11.9 kmh NW 16.8 mph27.0 kmh 30.36 in1028.1 mb 0.00 in0.0 mm 0.00 in0.0 mm 0.00 in0.0 mm
04:40 AM 44.8°F7.1°C 34.1°F1.2°C 66% 8.6 mph NW13.8 kmh NW 16.8 mph27.0 kmh 30.36 in1028.1 mb 0.00 in0.0 mm 0.00 in0.0 mm 0.00 in0.0 mm
04:45 AM 44.8°F7.1°C 33.4°F0.8°C 64% 9.2 mph NW14.8 kmh NW 17.4 mph28.0 kmh 30.35 in1027.8 mb 0.00 in0.0 mm 0.00 in0.0 mm 0.00 in0.0 mm
04:50 AM 44.8°F7.1°C 33.4°F0.8°C 64% 8.4 mph NW13.5 kmh NW 17.4 mph28.0 kmh 30.35 in1027.8 mb 0.00 in0.0 mm 0.00 in0.0 mm 0.00 in0.0 mm
04:55 AM 44.8°F7.1°C 33.4°F0.8°C 64% 7.1 mph NNW11.4 kmh NNW 16.8 mph27.0 kmh 30.35 in1027.8 mb 0.00 in0.0 mm 0.00 in0.0 mm 0.00 in0.0 mm
05:00 AM 44.8°F7.1°C 33.4°F0.8°C 64% 6.6 mph NNW10.6 kmh NNW 16.8 mph27.0 kmh 30.36 in1028.1 mb 0.00 in0.0 mm 0.00 in0.0 mm 0.00 in0.0 mm
05:05 AM 44.6°F7.0°C 33.6°F0.9°C 65% 7.8 mph NNW12.6 kmh NNW 18.3 mph29.5 kmh 30.36 in1028.1 mb 0.00 in0.0 mm 0.00 in0.0 mm 0.00 in0.0 mm
05:10 AM 44.8°F7.1°C 33.7°F0.9°C 65% 9.9 mph NW15.9 kmh NW 21.3 mph34.3 kmh 30.36 in1028.1 mb 0.00 in0.0 mm 0.00 in0.0 mm 0.00 in0.0 mm
05:15 AM 44.8°F7.1°C 34.1°F1.2°C 66% 10.0 mph NW16.1 kmh NW 21.3 mph34.3 kmh 30.36 in1028.1 mb 0.00 in0.0 mm 0.00 in0.0 mm 0.00 in0.0 mm
05:20 AM 45.0°F7.2°C 33.9°F1.1°C 65% 9.8 mph NW15.8 kmh NW 21.3 mph34.3 kmh 30.37 in1028.4 mb 0.00 in0.0 mm 0.00 in0.0 mm 0.00 in0.0 mm
05:25 AM 45.0°F7.2°C 33.9°F1.1°C 65% 9.1 mph NW14.6 kmh NW 21.3 mph34.3 kmh 30.36 in1028.1 mb 0.00 in0.0 mm 0.00 in0.0 mm 0.00 in0.0 mm
05:30 AM 45.0°F7.2°C 33.5°F0.8°C 64% 7.0 mph NW11.3 kmh NW 18.3 mph29.5 kmh 30.36 in1028.1 mb 0.00 in0.0 mm 0.00 in0.0 mm 0.00 in0.0 mm
05:35 AM 45.0°F7.2°C 33.1°F0.6°C 63% 5.7 mph NW9.2 kmh NW 15.2 mph24.5 kmh 30.36 in1028.1 mb 0.00 in0.0 mm 0.00 in0.0 mm 0.00 in0.0 mm
05:40 AM 45.0°F7.2°C 33.1°F0.6°C 63% 6.0 mph NW9.7 kmh NW 15.2 mph24.5 kmh 30.37 in1028.4 mb 0.00 in0.0 mm 0.00 in0.0 mm 0.00 in0.0 mm
05:45 AM 45.0°F7.2°C 33.1°F0.6°C 63% 6.9 mph NW11.1 kmh NW 14.5 mph23.3 kmh 30.37 in1028.4 mb 0.00 in0.0 mm 0.00 in0.0 mm 0.00 in0.0 mm
05:50 AM 45.0°F7.2°C 33.1°F0.6°C 63% 7.3 mph NW11.7 kmh NW 18.3 mph29.5 kmh 30.37 in1028.4 mb 0.00 in0.0 mm 0.00 in0.0 mm 0.00 in0.0 mm
05:55 AM 45.0°F7.2°C 33.5°F0.8°C 64% 7.8 mph NW12.6 kmh NW 18.3 mph29.5 kmh 30.37 in1028.4 mb 0.00 in0.0 mm 0.00 in0.0 mm 0.00 in0.0 mm
06:00 AM 45.0°F7.2°C 33.1°F0.6°C 63% 8.4 mph NW13.5 kmh NW 19.0 mph30.6 kmh 30.38 in1028.8 mb 0.00 in0.0 mm 0.00 in0.0 mm 0.00 in0.0 mm
06:05 AM 44.8°F7.1°C 33.4°F0.8°C 64% 7.9 mph NW12.7 kmh NW 19.0 mph30.6 kmh 30.38 in1028.8 mb 0.00 in0.0 mm 0.00 in0.0 mm 0.00 in0.0 mm
06:10 AM 44.4°F6.9°C 33.0°F0.6°C 64% 6.4 mph NW10.3 kmh NW 12.1 mph19.5 kmh 30.38 in1028.8 mb 0.00 in0.0 mm 0.00 in0.0 mm 0.00 in0.0 mm
06:15 AM 44.2°F6.8°C 32.8°F0.4°C 64% 5.2 mph NW8.4 kmh NW 11.4 mph18.3 kmh 30.38 in1028.8 mb 0.00 in0.0 mm 0.00 in0.0 mm 0.00 in0.0 mm
06:20 AM 43.9°F6.6°C 32.5°F0.3°C 64% 4.4 mph NW7.1 kmh NW 10.7 mph17.2 kmh 30.38 in1028.8 mb 0.00 in0.0 mm 0.00 in0.0 mm 0.00 in0.0 mm
06:25 AM 43.5°F6.4°C 32.5°F0.3°C 65% 5.0 mph WNW8.0 kmh WNW 14.5 mph23.3 kmh 30.38 in1028.8 mb 0.00 in0.0 mm 0.00 in0.0 mm 0.00 in0.0 mm
06:30 AM 43.5°F6.4°C 32.5°F0.3°C 65% 5.8 mph WNW9.3 kmh WNW 14.5 mph23.3 kmh 30.38 in1028.8 mb 0.00 in0.0 mm 0.00 in0.0 mm 0.00 in0.0 mm
06:35 AM 43.3°F6.3°C 32.0°F0.0°C 64% 5.7 mph WNW9.2 kmh WNW 14.5 mph23.3 kmh 30.38 in1028.8 mb 0.00 in0.0 mm 0.00 in0.0 mm 0.00 in0.0 mm
06:40 AM 43.2°F6.2°C 32.2°F0.1°C 65% 5.4 mph W8.7 kmh W 10.7 mph17.2 kmh 30.39 in1029.1 mb 0.00 in0.0 mm 0.00 in0.0 mm 0.00 in0.0 mm
06:45 AM 43.3°F6.3°C 32.4°F0.2°C 65% 5.1 mph WNW8.2 kmh WNW 10.7 mph17.2 kmh 30.38 in1028.8 mb 0.00 in0.0 mm 0.00 in0.0 mm 0.00 in0.0 mm
06:50 AM 43.2°F6.2°C 32.2°F0.1°C 65% 4.3 mph WNW6.9 kmh WNW 10.7 mph17.2 kmh 30.38 in1028.8 mb 0.00 in0.0 mm 0.00 in0.0 mm 0.00 in0.0 mm
06:55 AM 43.0°F6.1°C 32.0°F0.0°C 65% 3.4 mph W5.5 kmh W 7.6 mph12.2 kmh 30.38 in1028.8 mb 0.00 in0.0 mm 0.00 in0.0 mm 0.00 in0.0 mm
07:00 AM 42.8°F6.0°C 31.9°F-0.1°C 65% 3.1 mph W5.0 kmh W 7.6 mph12.2 kmh 30.38 in1028.8 mb 0.00 in0.0 mm 0.00 in0.0 mm 0.00 in0.0 mm
07:05 AM 42.8°F6.0°C 31.9°F-0.1°C 65% 3.5 mph W5.6 kmh W 10.7 mph17.2 kmh 30.39 in1029.1 mb 0.00 in0.0 mm 0.00 in0.0 mm 0.00 in0.0 mm
07:10 AM 42.8°F6.0°C 31.9°F-0.1°C 65% 3.4 mph W5.5 kmh W 10.7 mph17.2 kmh 30.39 in1029.1 mb 0.00 in0.0 mm 0.00 in0.0 mm 0.00 in0.0 mm
07:15 AM 42.6°F5.9°C 31.7°F-0.2°C 65% 3.1 mph W5.0 kmh W 10.7 mph17.2 kmh 30.39 in1029.1 mb 0.00 in0.0 mm 0.00 in0.0 mm 0.00 in0.0 mm
07:20 AM 42.6°F5.9°C 32.1°F0.1°C 66% 2.6 mph WSW4.2 kmh WSW 7.6 mph12.2 kmh 30.39 in1029.1 mb 0.00 in0.0 mm 0.00 in0.0 mm 0.00 in0.0 mm
07:25 AM 42.3°F5.7°C 31.3°F-0.4°C 65% 2.0 mph WSW3.2 kmh WSW 5.4 mph8.7 kmh 30.40 in1029.5 mb 0.00 in0.0 mm 0.00 in0.0 mm 0.00 in0.0 mm
07:30 AM 41.7°F5.4°C 31.2°F-0.4°C 66% 1.9 mph WSW3.1 kmh WSW 4.5 mph7.2 kmh 30.40 in1029.5 mb 0.00 in0.0 mm 0.00 in0.0 mm 0.00 in0.0 mm
07:35 AM 41.4°F5.2°C 30.9°F-0.6°C 66% 2.1 mph WSW3.4 kmh WSW 6.0 mph9.7 kmh 30.40 in1029.5 mb 0.00 in0.0 mm 0.00 in0.0 mm 0.00 in0.0 mm
07:40 AM 41.2°F5.1°C 30.7°F-0.7°C 66% 2.4 mph WSW3.9 kmh WSW 6.0 mph9.7 kmh 30.40 in1029.5 mb 0.00 in0.0 mm 0.00 in0.0 mm 0.00 in0.0 mm
07:45 AM 41.0°F5.0°C 30.5°F-0.8°C 66% 2.5 mph W4.0 kmh W 6.0 mph9.7 kmh 30.40 in1029.5 mb 0.00 in0.0 mm 0.00 in0.0 mm 0.00 in0.0 mm
07:50 AM 40.8°F4.9°C 30.7°F-0.7°C 67% 2.5 mph WNW4.0 kmh WNW 6.0 mph9.7 kmh 30.41 in1029.8 mb 0.00 in0.0 mm 0.00 in0.0 mm 0.00 in0.0 mm
07:55 AM 41.0°F5.0°C 31.3°F-0.4°C 68% 3.2 mph W5.1 kmh W 8.3 mph13.4 kmh 30.41 in1029.8 mb 0.00 in0.0 mm 0.00 in0.0 mm 0.00 in0.0 mm
08:00 AM 41.2°F5.1°C 31.4°F-0.3°C 68% 3.7 mph W6.0 kmh W 8.3 mph13.4 kmh 30.41 in1029.8 mb 0.00 in0.0 mm 0.00 in0.0 mm 0.00 in0.0 mm
08:05 AM 41.0°F5.0°C 30.9°F-0.6°C 67% 3.5 mph WSW5.6 kmh WSW 7.6 mph12.2 kmh 30.41 in1029.8 mb 0.00 in0.0 mm 0.00 in0.0 mm 0.00 in0.0 mm
08:10 AM 40.6°F4.8°C 30.6°F-0.8°C 67% 3.0 mph WSW4.8 kmh WSW 7.6 mph12.2 kmh 30.41 in1029.8 mb 0.00 in0.0 mm 0.00 in0.0 mm 0.00 in0.0 mm
08:15 AM 40.6°F4.8°C 30.6°F-0.8°C 67% 2.6 mph W4.2 kmh W 7.6 mph12.2 kmh 30.41 in1029.8 mb 0.00 in0.0 mm 0.00 in0.0 mm 0.00 in0.0 mm
08:20 AM 40.6°F4.8°C 30.6°F-0.8°C 67% 2.9 mph W4.7 kmh W 7.6 mph12.2 kmh 30.41 in1029.8 mb 0.00 in0.0 mm 0.00 in0.0 mm 0.00 in0.0 mm
08:25 AM 40.6°F4.8°C 30.2°F-1.0°C 66% 3.6 mph W5.8 kmh W 10.7 mph17.2 kmh 30.41 in1029.8 mb 0.00 in0.0 mm 0.00 in0.0 mm 0.00 in0.0 mm
08:30 AM 40.8°F4.9°C 30.7°F-0.7°C 67% 3.7 mph W6.0 kmh W 10.7 mph17.2 kmh 30.40 in1029.5 mb 0.00 in0.0 mm 0.00 in0.0 mm 0.00 in0.0 mm
08:35 AM 41.2°F5.1°C 31.4°F-0.3°C 68% 3.1 mph W5.0 kmh W 10.7 mph17.2 kmh 30.41 in1029.8 mb 0.00 in0.0 mm 0.00 in0.0 mm 0.00 in0.0 mm
08:40 AM 41.5°F5.3°C 31.8°F-0.1°C 68% 3.9 mph W6.3 kmh W 10.7 mph17.2 kmh 30.41 in1029.8 mb 0.00 in0.0 mm 0.00 in0.0 mm 0.00 in0.0 mm
08:45 AM 42.3°F5.7°C 32.1°F0.1°C 67% 4.4 mph W7.1 kmh W 10.7 mph17.2 kmh 30.41 in1029.8 mb 0.00 in0.0 mm 0.00 in0.0 mm 0.00 in0.0 mm
08:50 AM 42.6°F5.9°C 31.7°F-0.2°C 65% 4.2 mph W6.8 kmh W 11.4 mph18.3 kmh 30.41 in1029.8 mb 0.00 in0.0 mm 0.00 in0.0 mm 0.00 in0.0 mm
08:55 AM 43.0°F6.1°C 32.0°F0.0°C 65% 4.0 mph W6.4 kmh W 11.4 mph18.3 kmh 30.41 in1029.8 mb 0.00 in0.0 mm 0.00 in0.0 mm 0.00 in0.0 mm
09:00 AM 43.2°F6.2°C 32.2°F0.1°C 65% 3.8 mph W6.1 kmh W 9.8 mph15.8 kmh 30.41 in1029.8 mb 0.00 in0.0 mm 0.00 in0.0 mm 0.00 in0.0 mm
09:05 AM 43.5°F6.4°C 32.2°F0.1°C 64% 4.4 mph W7.1 kmh W 9.8 mph15.8 kmh 30.41 in1029.8 mb 0.00 in0.0 mm 0.00 in0.0 mm 0.00 in0.0 mm
09:10 AM 43.7°F6.5°C 32.3°F0.2°C 64% 4.8 mph W7.7 kmh W 9.8 mph15.8 kmh 30.41 in1029.8 mb 0.00 in0.0 mm 0.00 in0.0 mm 0.00 in0.0 mm
09:15 AM 43.7°F6.5°C 31.9°F-0.1°C 63% 4.7 mph WNW7.6 kmh WNW 9.8 mph15.8 kmh 30.41 in1029.8 mb 0.00 in0.0 mm 0.00 in0.0 mm 0.00 in0.0 mm
09:20 AM 43.7°F6.5°C 31.9°F-0.1°C 63% 4.5 mph W7.2 kmh W 9.8 mph15.8 kmh 30.41 in1029.8 mb 0.00 in0.0 mm 0.00 in0.0 mm 0.00 in0.0 mm
09:25 AM 43.7°F6.5°C 31.9°F-0.1°C 63% 4.9 mph WSW7.9 kmh WSW 13.0 mph20.9 kmh 30.41 in1029.8 mb 0.00 in0.0 mm 0.00 in0.0 mm 0.00 in0.0 mm
09:30 AM 43.9°F6.6°C 32.1°F0.1°C 63% 5.0 mph WSW8.0 kmh WSW 13.0 mph20.9 kmh 30.41 in1029.8 mb 0.00 in0.0 mm 0.00 in0.0 mm 0.00 in0.0 mm
09:35 AM 44.2°F6.8°C 32.1°F0.1°C 62% 4.7 mph WSW7.6 kmh WSW 9.8 mph15.8 kmh 30.42 in1030.1 mb 0.00 in0.0 mm 0.00 in0.0 mm 0.00 in0.0 mm
09:40 AM 44.4°F6.9°C 31.8°F-0.1°C 61% 4.8 mph W7.7 kmh W 10.7 mph17.2 kmh 30.42 in1030.1 mb 0.00 in0.0 mm 0.00 in0.0 mm 0.00 in0.0 mm
09:45 AM 44.8°F7.1°C 32.2°F0.1°C 61% 4.5 mph W7.2 kmh W 10.7 mph17.2 kmh 30.42 in1030.1 mb 0.00 in0.0 mm 0.00 in0.0 mm 0.00 in0.0 mm
09:50 AM 45.1°F7.3°C 32.5°F0.3°C 61% 4.1 mph WNW6.6 kmh WNW 9.8 mph15.8 kmh 30.42 in1030.1 mb 0.00 in0.0 mm 0.00 in0.0 mm 0.00 in0.0 mm
09:55 AM 45.9°F7.7°C 32.8°F0.4°C 60% 7.2 mph NW11.6 kmh NW 16.8 mph27.0 kmh 30.42 in1030.1 mb 0.00 in0.0 mm 0.00 in0.0 mm 0.00 in0.0 mm
10:00 AM 46.4°F8.0°C 32.9°F0.5°C 59% 10.0 mph NW16.1 kmh NW 20.6 mph33.2 kmh 30.42 in1030.1 mb 0.00 in0.0 mm 0.00 in0.0 mm 0.00 in0.0 mm
10:05 AM 46.8°F8.2°C 32.8°F0.4°C 58% 9.8 mph NW15.8 kmh NW 20.6 mph33.2 kmh 30.42 in1030.1 mb 0.00 in0.0 mm 0.00 in0.0 mm 0.00 in0.0 mm
10:10 AM 47.1°F8.4°C 32.7°F0.4°C 57% 8.0 mph NW12.9 kmh NW 16.8 mph27.0 kmh 30.42 in1030.1 mb 0.00 in0.0 mm 0.00 in0.0 mm 0.00 in0.0 mm
10:15 AM 47.3°F8.5°C 32.0°F0.0°C 55% 7.4 mph NW11.9 kmh NW 17.4 mph28.0 kmh 30.42 in1030.1 mb 0.00 in0.0 mm 0.00 in0.0 mm 0.00 in0.0 mm
10:20 AM 47.8°F8.8°C 32.0°F0.0°C 54% 7.8 mph NW12.6 kmh NW 17.4 mph28.0 kmh 30.42 in1030.1 mb 0.00 in0.0 mm 0.00 in0.0 mm 0.00 in0.0 mm
10:25 AM 48.2°F9.0°C 31.9°F-0.1°C 53% 8.0 mph NW12.9 kmh NW 16.8 mph27.0 kmh 30.42 in1030.1 mb 0.00 in0.0 mm 0.00 in0.0 mm 0.00 in0.0 mm
10:30 AM 48.2°F9.0°C 30.9°F-0.6°C 51% 9.4 mph NW15.1 kmh NW 19.0 mph30.6 kmh 30.42 in1030.1 mb 0.00 in0.0 mm 0.00 in0.0 mm 0.00 in0.0 mm
10:35 AM 48.0°F8.9°C 30.8°F-0.7°C 51% 9.7 mph NW15.6 kmh NW 19.0 mph30.6 kmh 30.43 in1030.5 mb 0.00 in0.0 mm 0.00 in0.0 mm 0.00 in0.0 mm
10:40 AM 48.0°F8.9°C 30.8°F-0.7°C 51% 10.3 mph NW16.6 kmh NW 20.6 mph33.2 kmh 30.42 in1030.1 mb 0.00 in0.0 mm 0.00 in0.0 mm 0.00 in0.0 mm
10:45 AM 47.8°F8.8°C 30.6°F-0.8°C 51% 10.6 mph NW17.1 kmh NW 20.6 mph33.2 kmh 30.43 in1030.5 mb 0.00 in0.0 mm 0.00 in0.0 mm 0.00 in0.0 mm
10:50 AM 47.8°F8.8°C 30.6°F-0.8°C 51% 9.2 mph NW14.8 kmh NW 17.4 mph28.0 kmh 30.43 in1030.5 mb 0.00 in0.0 mm 0.00 in0.0 mm 0.00 in0.0 mm
10:55 AM 47.8°F8.8°C 30.6°F-0.8°C 51% 8.8 mph NW14.2 kmh NW 19.0 mph30.6 kmh 30.43 in1030.5 mb 0.00 in0.0 mm 0.00 in0.0 mm 0.00 in0.0 mm
11:00 AM 47.8°F8.8°C 31.1°F-0.5°C 52% 8.2 mph NW13.2 kmh NW 19.0 mph30.6 kmh 30.43 in1030.5 mb 0.00 in0.0 mm 0.00 in0.0 mm 0.00 in0.0 mm
11:05 AM 48.0°F8.9°C 31.2°F-0.4°C 52% 6.7 mph NW10.8 kmh NW 16.8 mph27.0 kmh 30.43 in1030.5 mb 0.00 in0.0 mm 0.00 in0.0 mm 0.00 in0.0 mm
11:10 AM 48.4°F9.1°C 31.6°F-0.2°C 52% 6.6 mph NW10.6 kmh NW 14.5 mph23.3 kmh 30.43 in1030.5 mb 0.00 in0.0 mm 0.00 in0.0 mm 0.00 in0.0 mm
11:15 AM 48.6°F9.2°C 31.7°F-0.2°C 52% 7.0 mph NW11.3 kmh NW 15.9 mph25.6 kmh 30.42 in1030.1 mb 0.00 in0.0 mm 0.00 in0.0 mm 0.00 in0.0 mm
11:20 AM 48.4°F9.1°C 31.1°F-0.5°C 51% 7.9 mph NW12.7 kmh NW 17.4 mph28.0 kmh 30.43 in1030.5 mb 0.00 in0.0 mm 0.00 in0.0 mm 0.00 in0.0 mm
11:25 AM 48.4°F9.1°C 31.1°F-0.5°C 51% 7.5 mph NW12.1 kmh NW 17.4 mph28.0 kmh 30.43 in1030.5 mb 0.00 in0.0 mm 0.00 in0.0 mm 0.00 in0.0 mm
11:30 AM 48.6°F9.2°C 31.7°F-0.2°C 52% 6.2 mph WNW10.0 kmh WNW 15.9 mph25.6 kmh 30.43 in1030.5 mb 0.00 in0.0 mm 0.00 in0.0 mm 0.00 in0.0 mm
11:35 AM 48.6°F9.2°C 31.3°F-0.4°C 51% 7.1 mph NW11.4 kmh NW 17.4 mph28.0 kmh 30.42 in1030.1 mb 0.00 in0.0 mm 0.00 in0.0 mm 0.00 in0.0 mm
11:40 AM 48.6°F9.2°C 31.3°F-0.4°C 51% 7.7 mph NW12.4 kmh NW 17.4 mph28.0 kmh 30.42 in1030.1 mb 0.00 in0.0 mm 0.00 in0.0 mm 0.00 in0.0 mm
11:45 AM 48.7°F9.3°C 30.9°F-0.6°C 50% 7.9 mph NW12.7 kmh NW 19.0 mph30.6 kmh 30.42 in1030.1 mb 0.00 in0.0 mm 0.00 in0.0 mm 0.00 in0.0 mm
11:50 AM 49.1°F9.5°C 31.3°F-0.4°C 50% 7.7 mph NW12.4 kmh NW 19.0 mph30.6 kmh 30.42 in1030.1 mb 0.00 in0.0 mm 0.00 in0.0 mm 0.00 in0.0 mm
11:55 AM 49.1°F9.5°C 31.3°F-0.4°C 50% 6.8 mph NW10.9 kmh NW 15.2 mph24.5 kmh 30.42 in1030.1 mb 0.00 in0.0 mm 0.00 in0.0 mm 0.00 in0.0 mm
12:00 PM 49.3°F9.6°C 30.9°F-0.6°C 49% 6.8 mph WNW10.9 kmh WNW 13.0 mph20.9 kmh 30.41 in1029.8 mb 0.00 in0.0 mm 0.00 in0.0 mm 0.00 in0.0 mm
12:05 PM 49.5°F9.7°C 31.1°F-0.5°C 49% 6.8 mph WNW10.9 kmh WNW 14.5 mph23.3 kmh 30.41 in1029.8 mb 0.00 in0.0 mm 0.00 in0.0 mm 0.00 in0.0 mm
12:10 PM 49.3°F9.6°C 30.4°F-0.9°C 48% 5.9 mph WNW9.5 kmh WNW 16.8 mph27.0 kmh 30.41 in1029.8 mb 0.00 in0.0 mm 0.00 in0.0 mm 0.00 in0.0 mm
12:15 PM 49.1°F9.5°C 30.8°F-0.7°C 49% 6.2 mph NW10.0 kmh NW 16.8 mph27.0 kmh 30.41 in1029.8 mb 0.00 in0.0 mm 0.00 in0.0 mm 0.00 in0.0 mm
12:20 PM 49.1°F9.5°C 30.8°F-0.7°C 49% 8.5 mph NW13.7 kmh NW 19.7 mph31.7 kmh 30.41 in1029.8 mb 0.00 in0.0 mm 0.00 in0.0 mm 0.00 in0.0 mm
12:25 PM 48.6°F9.2°C 30.3°F-0.9°C 49% 8.8 mph NW14.2 kmh NW 19.7 mph31.7 kmh 30.41 in1029.8 mb 0.00 in0.0 mm 0.00 in0.0 mm 0.00 in0.0 mm
12:30 PM 48.0°F8.9°C 29.8°F-1.2°C 49% 7.2 mph NW11.6 kmh NW 15.2 mph24.5 kmh 30.41 in1029.8 mb 0.00 in0.0 mm 0.00 in0.0 mm 0.00 in0.0 mm
12:35 PM 47.8°F8.8°C 30.1°F-1.1°C 50% 6.3 mph NW10.1 kmh NW 13.6 mph21.9 kmh 30.40 in1029.5 mb 0.00 in0.0 mm 0.00 in0.0 mm 0.00 in0.0 mm
12:40 PM 48.0°F8.9°C 30.8°F-0.7°C 51% 6.7 mph WNW10.8 kmh WNW 13.6 mph21.9 kmh 30.40 in1029.5 mb 0.00 in0.0 mm 0.00 in0.0 mm 0.00 in0.0 mm
12:45 PM 48.7°F9.3°C 30.9°F-0.6°C 50% 7.7 mph WNW12.4 kmh WNW 13.6 mph21.9 kmh 30.41 in1029.8 mb 0.00 in0.0 mm 0.00 in0.0 mm 0.00 in0.0 mm
12:50 PM 49.3°F9.6°C 31.9°F-0.1°C 51% 7.5 mph WNW12.1 kmh WNW 15.2 mph24.5 kmh 30.40 in1029.5 mb 0.00 in0.0 mm 0.00 in0.0 mm 0.00 in0.0 mm
12:55 PM 48.9°F9.4°C 31.1°F-0.5°C 50% 6.9 mph WNW11.1 kmh WNW 15.2 mph24.5 kmh 30.40 in1029.5 mb 0.00 in0.0 mm 0.00 in0.0 mm 0.00 in0.0 mm
01:00 PM 48.4°F9.1°C 31.1°F-0.5°C 51% 6.6 mph WNW10.6 kmh WNW 14.5 mph23.3 kmh 30.40 in1029.5 mb 0.00 in0.0 mm 0.00 in0.0 mm 0.00 in0.0 mm
01:05 PM 48.0°F8.9°C 31.2°F-0.4°C 52% 6.1 mph WNW9.8 kmh WNW 15.9 mph25.6 kmh 30.40 in1029.5 mb 0.00 in0.0 mm 0.00 in0.0 mm 0.00 in0.0 mm
01:10 PM 47.8°F8.8°C 30.6°F-0.8°C 51% 6.7 mph WNW10.8 kmh WNW 15.9 mph25.6 kmh 30.40 in1029.5 mb 0.00 in0.0 mm 0.00 in0.0 mm 0.00 in0.0 mm
01:15 PM 47.7°F8.7°C 30.9°F-0.6°C 52% 6.4 mph WNW10.3 kmh WNW 15.9 mph25.6 kmh 30.40 in1029.5 mb 0.00 in0.0 mm 0.00 in0.0 mm 0.00 in0.0 mm
01:20 PM 47.8°F8.8°C 31.1°F-0.5°C 52% 5.8 mph WNW9.3 kmh WNW 15.2 mph24.5 kmh 30.40 in1029.5 mb 0.00 in0.0 mm 0.00 in0.0 mm 0.00 in0.0 mm
01:25 PM 47.8°F8.8°C 31.5°F-0.3°C 53% 5.9 mph WNW9.5 kmh WNW 15.2 mph24.5 kmh 30.40 in1029.5 mb 0.00 in0.0 mm 0.00 in0.0 mm 0.00 in0.0 mm
01:30 PM 47.8°F8.8°C 31.5°F-0.3°C 53% 5.5 mph W8.9 kmh W 12.1 mph19.5 kmh 30.40 in1029.5 mb 0.00 in0.0 mm 0.00 in0.0 mm 0.00 in0.0 mm
01:35 PM 47.8°F8.8°C 31.5°F-0.3°C 53% 5.3 mph W8.5 kmh W 13.0 mph20.9 kmh 30.39 in1029.1 mb 0.00 in0.0 mm 0.00 in0.0 mm 0.00 in0.0 mm
01:40 PM 48.0°F8.9°C 31.7°F-0.2°C 53% 5.5 mph NW8.9 kmh NW 13.0 mph20.9 kmh 30.39 in1029.1 mb 0.00 in0.0 mm 0.00 in0.0 mm 0.00 in0.0 mm
01:45 PM 48.2°F9.0°C 32.3°F0.2°C 54% 4.4 mph WNW7.1 kmh WNW 10.7 mph17.2 kmh 30.39 in1029.1 mb 0.00 in0.0 mm 0.00 in0.0 mm 0.00 in0.0 mm
01:50 PM 48.2°F9.0°C 32.3°F0.2°C 54% 3.5 mph WNW5.6 kmh WNW 11.4 mph18.3 kmh 30.39 in1029.1 mb 0.00 in0.0 mm 0.00 in0.0 mm 0.00 in0.0 mm
01:55 PM 48.7°F9.3°C 33.3°F0.7°C 55% 4.0 mph WNW6.4 kmh WNW 14.5 mph23.3 kmh 30.39 in1029.1 mb 0.00 in0.0 mm 0.00 in0.0 mm 0.00 in0.0 mm
02:00 PM 49.1°F9.5°C 33.2°F0.7°C 54% 5.4 mph NW8.7 kmh NW 14.5 mph23.3 kmh 30.38 in1028.8 mb 0.00 in0.0 mm 0.00 in0.0 mm 0.00 in0.0 mm
02:05 PM 49.5°F9.7°C 33.1°F0.6°C 53% 6.6 mph NW10.6 kmh NW 17.4 mph28.0 kmh 30.38 in1028.8 mb 0.00 in0.0 mm 0.00 in0.0 mm 0.00 in0.0 mm
02:10 PM 49.6°F9.8°C 33.2°F0.7°C 53% 7.1 mph NW11.4 kmh NW 17.4 mph28.0 kmh 30.39 in1029.1 mb 0.00 in0.0 mm 0.00 in0.0 mm 0.00 in0.0 mm
02:15 PM 50.0°F10.0°C 33.6°F0.9°C 53% 6.7 mph NW10.8 kmh NW 15.9 mph25.6 kmh 30.38 in1028.8 mb 0.00 in0.0 mm 0.00 in0.0 mm 0.00 in0.0 mm
02:20 PM 50.2°F10.1°C 33.2°F0.7°C 52% 5.8 mph NW9.3 kmh NW 15.9 mph25.6 kmh 30.37 in1028.4 mb 0.00 in0.0 mm 0.00 in0.0 mm 0.00 in0.0 mm
02:25 PM 50.4°F10.2°C 33.4°F0.8°C 52% 5.4 mph NNW8.7 kmh NNW 13.0 mph20.9 kmh 30.37 in1028.4 mb 0.00 in0.0 mm 0.00 in0.0 mm 0.00 in0.0 mm
02:30 PM 50.4°F10.2°C 33.4°F0.8°C 52% 5.4 mph NW8.7 kmh NW 12.1 mph19.5 kmh 30.37 in1028.4 mb 0.00 in0.0 mm 0.00 in0.0 mm 0.00 in0.0 mm
02:35 PM 50.5°F10.3°C 33.6°F0.9°C 52% 4.2 mph NW6.8 kmh NW 11.4 mph18.3 kmh 30.37 in1028.4 mb 0.00 in0.0 mm 0.00 in0.0 mm 0.00 in0.0 mm
02:40 PM 50.7°F10.4°C 33.3°F0.7°C 51% 3.8 mph NW6.1 kmh NW 11.4 mph18.3 kmh 30.37 in1028.4 mb 0.00 in0.0 mm 0.00 in0.0 mm 0.00 in0.0 mm
02:45 PM 50.5°F10.3°C 32.6°F0.3°C 50% 4.9 mph NW7.9 kmh NW 11.4 mph18.3 kmh 30.37 in1028.4 mb 0.00 in0.0 mm 0.00 in0.0 mm 0.00 in0.0 mm
02:50 PM 50.7°F10.4°C 33.3°F0.7°C 51% 3.5 mph NW5.6 kmh NW 10.7 mph17.2 kmh 30.37 in1028.4 mb 0.00 in0.0 mm 0.00 in0.0 mm 0.00 in0.0 mm
02:55 PM 50.9°F10.5°C 33.4°F0.8°C 51% 2.8 mph NNW4.5 kmh NNW 9.8 mph15.8 kmh 30.37 in1028.4 mb 0.00 in0.0 mm 0.00 in0.0 mm 0.00 in0.0 mm
03:00 PM 50.9°F10.5°C 32.9°F0.5°C 50% 3.8 mph NW6.1 kmh NW 9.8 mph15.8 kmh 30.37 in1028.4 mb 0.00 in0.0 mm 0.00 in0.0 mm 0.00 in0.0 mm
03:05 PM 50.9°F10.5°C 32.9°F0.5°C 50% 3.3 mph NW5.3 kmh NW 8.3 mph13.4 kmh 30.37 in1028.4 mb 0.00 in0.0 mm 0.00 in0.0 mm 0.00 in0.0 mm
03:10 PM 50.9°F10.5°C 32.4°F0.2°C 49% 3.2 mph WNW5.1 kmh WNW 6.9 mph11.1 kmh 30.37 in1028.4 mb 0.00 in0.0 mm 0.00 in0.0 mm 0.00 in0.0 mm
03:15 PM 50.9°F10.5°C 32.9°F0.5°C 50% 3.6 mph NW5.8 kmh NW 7.6 mph12.2 kmh 30.37 in1028.4 mb 0.00 in0.0 mm 0.00 in0.0 mm 0.00 in0.0 mm
03:20 PM 50.7°F10.4°C 32.8°F0.4°C 50% 3.2 mph NW5.1 kmh NW 7.6 mph12.2 kmh 30.37 in1028.4 mb 0.00 in0.0 mm 0.00 in0.0 mm 0.00 in0.0 mm
03:25 PM 50.7°F10.4°C 32.8°F0.4°C 50% 2.6 mph NW4.2 kmh NW 7.6 mph12.2 kmh 30.36 in1028.1 mb 0.00 in0.0 mm 0.00 in0.0 mm 0.00 in0.0 mm
03:30 PM 50.9°F10.5°C 32.9°F0.5°C 50% 2.8 mph WNW4.5 kmh WNW 6.0 mph9.7 kmh 30.37 in1028.4 mb 0.00 in0.0 mm 0.00 in0.0 mm 0.00 in0.0 mm
03:35 PM 50.9°F10.5°C 32.9°F0.5°C 50% 2.4 mph W3.9 kmh W 6.0 mph9.7 kmh 30.37 in1028.4 mb 0.00 in0.0 mm 0.00 in0.0 mm 0.00 in0.0 mm
03:40 PM 51.1°F10.6°C 32.6°F0.3°C 49% 1.9 mph W3.1 kmh W 6.0 mph9.7 kmh 30.37 in1028.4 mb 0.00 in0.0 mm 0.00 in0.0 mm 0.00 in0.0 mm
03:45 PM 50.9°F10.5°C 32.9°F0.5°C 50% 2.0 mph WNW3.2 kmh WNW 6.0 mph9.7 kmh 30.37 in1028.4 mb 0.00 in0.0 mm 0.00 in0.0 mm 0.00 in0.0 mm
03:50 PM 50.7°F10.4°C 32.3°F0.2°C 49% 3.0 mph NW4.8 kmh NW 9.2 mph14.8 kmh 30.37 in1028.4 mb 0.00 in0.0 mm 0.00 in0.0 mm 0.00 in0.0 mm
03:55 PM 50.7°F10.4°C 32.8°F0.4°C 50% 3.8 mph NW6.1 kmh NW 9.2 mph14.8 kmh 30.37 in1028.4 mb 0.00 in0.0 mm 0.00 in0.0 mm 0.00 in0.0 mm
04:00 PM 50.5°F10.3°C 32.6°F0.3°C 50% 2.6 mph NW4.2 kmh NW 8.3 mph13.4 kmh 30.38 in1028.8 mb 0.00 in0.0 mm 0.00 in0.0 mm 0.00 in0.0 mm
04:05 PM 50.5°F10.3°C 33.1°F0.6°C 51% 1.9 mph W3.1 kmh W 6.0 mph9.7 kmh 30.38 in1028.8 mb 0.00 in0.0 mm 0.00 in0.0 mm 0.00 in0.0 mm
04:10 PM 50.2°F10.1°C 32.8°F0.4°C 51% 2.2 mph W3.5 kmh W 6.0 mph9.7 kmh 30.38 in1028.8 mb 0.00 in0.0 mm 0.00 in0.0 mm 0.00 in0.0 mm
04:15 PM 50.2°F10.1°C 32.8°F0.4°C 51% 2.2 mph W3.5 kmh W 6.0 mph9.7 kmh 30.38 in1028.8 mb 0.00 in0.0 mm 0.00 in0.0 mm 0.00 in0.0 mm
04:20 PM 50.0°F10.0°C 32.6°F0.3°C 51% 2.1 mph W3.4 kmh W 6.9 mph11.1 kmh 30.38 in1028.8 mb 0.00 in0.0 mm 0.00 in0.0 mm 0.00 in0.0 mm
04:25 PM 49.8°F9.9°C 32.4°F0.2°C 51% 2.4 mph WNW3.9 kmh WNW 6.9 mph11.1 kmh 30.38 in1028.8 mb 0.00 in0.0 mm 0.00 in0.0 mm 0.00 in0.0 mm
04:30 PM 49.6°F9.8°C 32.7°F0.4°C 52% 2.6 mph WNW4.2 kmh WNW 6.0 mph9.7 kmh 30.38 in1028.8 mb 0.00 in0.0 mm 0.00 in0.0 mm 0.00 in0.0 mm
04:35 PM 49.5°F9.7°C 32.6°F0.3°C 52% 2.0 mph WNW3.2 kmh WNW 4.5 mph7.2 kmh 30.38 in1028.8 mb 0.00 in0.0 mm 0.00 in0.0 mm 0.00 in0.0 mm
04:40 PM 49.5°F9.7°C 32.6°F0.3°C 52% 1.6 mph W2.6 kmh W 4.5 mph7.2 kmh 30.38 in1028.8 mb 0.00 in0.0 mm 0.00 in0.0 mm 0.00 in0.0 mm
04:45 PM 49.5°F9.7°C 32.6°F0.3°C 52% 1.6 mph W2.6 kmh W 4.5 mph7.2 kmh 30.38 in1028.8 mb 0.00 in0.0 mm 0.00 in0.0 mm 0.00 in0.0 mm
04:50 PM 49.1°F9.5°C 32.7°F0.4°C 53% 1.3 mph W2.1 kmh W 4.5 mph7.2 kmh 30.38 in1028.8 mb 0.00 in0.0 mm 0.00 in0.0 mm 0.00 in0.0 mm
04:55 PM 48.9°F9.4°C 33.0°F0.6°C 54% 0.9 mph W1.4 kmh W 3.8 mph6.1 kmh 30.38 in1028.8 mb 0.00 in0.0 mm 0.00 in0.0 mm 0.00 in0.0 mm
05:00 PM 48.7°F9.3°C 32.8°F0.4°C 54% 1.0 mph W1.6 kmh W 3.8 mph6.1 kmh 30.38 in1028.8 mb 0.00 in0.0 mm 0.00 in0.0 mm 0.00 in0.0 mm
05:05 PM 48.6°F9.2°C 32.7°F0.4°C 54% 0.6 mph W1.0 kmh W 3.1 mph5.0 kmh 30.38 in1028.8 mb 0.00 in0.0 mm 0.00 in0.0 mm 0.00 in0.0 mm
05:10 PM 48.4°F9.1°C 33.0°F0.6°C 55% 0.4 mph WSW0.6 kmh WSW 3.1 mph5.0 kmh 30.38 in1028.8 mb 0.00 in0.0 mm 0.00 in0.0 mm 0.00 in0.0 mm
05:15 PM 47.8°F8.8°C 32.9°F0.5°C 56% 1.3 mph SW2.1 kmh SW 3.8 mph6.1 kmh 30.38 in1028.8 mb 0.00 in0.0 mm 0.00 in0.0 mm 0.00 in0.0 mm
05:20 PM 47.1°F8.4°C 33.1°F0.6°C 58% 2.2 mph SW3.5 kmh SW 5.4 mph8.7 kmh 30.38 in1028.8 mb 0.00 in0.0 mm 0.00 in0.0 mm 0.00 in0.0 mm
05:25 PM 46.4°F8.0°C 33.3°F0.7°C 60% 2.3 mph SW3.7 kmh SW 5.4 mph8.7 kmh 30.38 in1028.8 mb 0.00 in0.0 mm 0.00 in0.0 mm 0.00 in0.0 mm
05:30 PM 46.0°F7.8°C 33.4°F0.8°C 61% 1.9 mph SW3.1 kmh SW 4.5 mph7.2 kmh 30.39 in1029.1 mb 0.00 in0.0 mm 0.00 in0.0 mm 0.00 in0.0 mm
05:35 PM 45.7°F7.6°C 33.4°F0.8°C 62% 2.2 mph SW3.5 kmh SW 4.5 mph7.2 kmh 30.38 in1028.8 mb 0.00 in0.0 mm 0.00 in0.0 mm 0.00 in0.0 mm
05:40 PM 45.1°F7.3°C 33.3°F0.7°C 63% 2.8 mph SW4.5 kmh SW 5.4 mph8.7 kmh 30.38 in1028.8 mb 0.00 in0.0 mm 0.00 in0.0 mm 0.00 in0.0 mm
05:45 PM 44.8°F7.1°C 33.4°F0.8°C 64% 2.8 mph SW4.5 kmh SW 5.4 mph8.7 kmh 30.38 in1028.8 mb 0.00 in0.0 mm 0.00 in0.0 mm 0.00 in0.0 mm
05:50 PM 44.6°F7.0°C 33.6°F0.9°C 65% 2.4 mph SW3.9 kmh SW 4.5 mph7.2 kmh 30.38 in1028.8 mb 0.00 in0.0 mm 0.00 in0.0 mm 0.00 in0.0 mm
05:55 PM 44.6°F7.0°C 33.6°F0.9°C 65% 1.7 mph SW2.7 kmh SW 4.5 mph7.2 kmh 30.38 in1028.8 mb 0.00 in0.0 mm 0.00 in0.0 mm 0.00 in0.0 mm
06:00 PM 44.4°F6.9°C 33.4°F0.8°C 65% 1.0 mph SW1.6 kmh SW 3.1 mph5.0 kmh 30.38 in1028.8 mb 0.00 in0.0 mm 0.00 in0.0 mm 0.00 in0.0 mm
06:05 PM 44.4°F6.9°C 33.4°F0.8°C 65% 0.8 mph SW1.3 kmh SW 3.1 mph5.0 kmh 30.39 in1029.1 mb 0.00 in0.0 mm 0.00 in0.0 mm 0.00 in0.0 mm
06:10 PM 44.2°F6.8°C 33.2°F0.7°C 65% 0.8 mph SW1.3 kmh SW 3.1 mph5.0 kmh 30.38 in1028.8 mb 0.00 in0.0 mm 0.00 in0.0 mm 0.00 in0.0 mm
06:15 PM 43.9°F6.6°C 33.3°F0.7°C 66% 0.4 mph SSW0.6 kmh SSW 2.2 mph3.5 kmh 30.38 in1028.8 mb 0.00 in0.0 mm 0.00 in0.0 mm 0.00 in0.0 mm
06:20 PM 43.5°F6.4°C 33.3°F0.7°C 67% 0.2 mph S0.3 kmh S 1.6 mph2.6 kmh 30.38 in1028.8 mb 0.00 in0.0 mm 0.00 in0.0 mm 0.00 in0.0 mm
06:25 PM 43.3°F6.3°C 33.5°F0.8°C 68% 0.6 mph SSW1.0 kmh SSW 3.1 mph5.0 kmh 30.38 in1028.8 mb 0.00 in0.0 mm 0.00 in0.0 mm 0.00 in0.0 mm
06:30 PM 43.2°F6.2°C 33.3°F0.7°C 68% 1.2 mph SW1.9 kmh SW 3.1 mph5.0 kmh 30.38 in1028.8 mb 0.00 in0.0 mm 0.00 in0.0 mm 0.00 in0.0 mm
06:35 PM 43.2°F6.2°C 33.7°F0.9°C 69% 1.4 mph SW2.3 kmh SW 3.1 mph5.0 kmh 30.38 in1028.8 mb 0.00 in0.0 mm 0.00 in0.0 mm 0.00 in0.0 mm
06:40 PM 43.0°F6.1°C 33.5°F0.8°C 69% 1.3 mph SW2.1 kmh SW 3.8 mph6.1 kmh 30.38 in1028.8 mb 0.00 in0.0 mm 0.00 in0.0 mm 0.00 in0.0 mm
06:45 PM 43.0°F6.1°C 33.2°F0.7°C 68% 1.0 mph WSW1.6 kmh WSW 3.8 mph6.1 kmh 30.38 in1028.8 mb 0.00 in0.0 mm 0.00 in0.0 mm 0.00 in0.0 mm
06:50 PM 43.0°F6.1°C 33.5°F0.8°C 69% 0.7 mph WSW1.1 kmh WSW 3.1 mph5.0 kmh 30.38 in1028.8 mb 0.00 in0.0 mm 0.00 in0.0 mm 0.00 in0.0 mm
06:55 PM 43.3°F6.3°C 33.5°F0.8°C 68% 0.7 mph SW1.1 kmh SW 3.1 mph5.0 kmh 30.38 in1028.8 mb 0.00 in0.0 mm 0.00 in0.0 mm 0.00 in0.0 mm
07:00 PM 43.2°F6.2°C 33.3°F0.7°C 68% 0.9 mph SW1.4 kmh SW 3.1 mph5.0 kmh 30.38 in1028.8 mb 0.00 in0.0 mm 0.00 in0.0 mm 0.00 in0.0 mm
07:05 PM 42.4°F5.8°C 33.0°F0.6°C 69% 0.9 mph SSW1.4 kmh SSW 3.1 mph5.0 kmh 30.38 in1028.8 mb 0.00 in0.0 mm 0.00 in0.0 mm 0.00 in0.0 mm
07:10 PM 42.1°F5.6°C 33.4°F0.8°C 71% 0.4 mph S0.6 kmh S 3.1 mph5.0 kmh 30.39 in1029.1 mb 0.00 in0.0 mm 0.00 in0.0 mm 0.00 in0.0 mm
07:15 PM 41.7°F5.4°C 33.4°F0.8°C 72% 0.3 mph S0.5 kmh S 1.6 mph2.6 kmh 30.39 in1029.1 mb 0.00 in0.0 mm 0.00 in0.0 mm 0.00 in0.0 mm
07:20 PM 41.7°F5.4°C 33.4°F0.8°C 72% 0.2 mph SSW0.3 kmh SSW 1.6 mph2.6 kmh 30.39 in1029.1 mb 0.00 in0.0 mm 0.00 in0.0 mm 0.00 in0.0 mm
07:25 PM 41.5°F5.3°C 33.2°F0.7°C 72% Calm Calm 2.2 mph3.5 kmh 30.39 in1029.1 mb 0.00 in0.0 mm 0.00 in0.0 mm 0.00 in0.0 mm
07:30 PM 41.5°F5.3°C 33.2°F0.7°C 72% 0.6 mph WSW1.0 kmh WSW 3.8 mph6.1 kmh 30.39 in1029.1 mb 0.00 in0.0 mm 0.00 in0.0 mm 0.00 in0.0 mm
07:35 PM 41.5°F5.3°C 33.2°F0.7°C 72% 1.7 mph WSW2.7 kmh WSW 4.5 mph7.2 kmh 30.39 in1029.1 mb 0.00 in0.0 mm 0.00 in0.0 mm 0.00 in0.0 mm
07:40 PM 41.4°F5.2°C 33.4°F0.8°C 73% 1.9 mph WSW3.1 kmh WSW 4.5 mph7.2 kmh 30.39 in1029.1 mb 0.00 in0.0 mm 0.00 in0.0 mm 0.00 in0.0 mm
07:45 PM 41.2°F5.1°C 33.2°F0.7°C 73% 2.3 mph WSW3.7 kmh WSW 6.0 mph9.7 kmh 30.38 in1028.8 mb 0.00 in0.0 mm 0.00 in0.0 mm 0.00 in0.0 mm
07:50 PM 41.2°F5.1°C 33.2°F0.7°C 73% 2.7 mph WSW4.3 kmh WSW 6.0 mph9.7 kmh 30.38 in1028.8 mb 0.00 in0.0 mm 0.00 in0.0 mm 0.00 in0.0 mm
07:55 PM 41.2°F5.1°C 33.2°F0.7°C 73% 1.9 mph WSW3.1 kmh WSW 6.0 mph9.7 kmh 30.38 in1028.8 mb 0.00 in0.0 mm 0.00 in0.0 mm 0.00 in0.0 mm
08:00 PM 41.2°F5.1°C 33.2°F0.7°C 73% 1.3 mph SW2.1 kmh SW 4.5 mph7.2 kmh 30.38 in1028.8 mb 0.00 in0.0 mm 0.00 in0.0 mm 0.00 in0.0 mm
08:05 PM 41.0°F5.0°C 33.0°F0.6°C 73% 1.5 mph WSW2.4 kmh WSW 4.5 mph7.2 kmh 30.39 in1029.1 mb 0.00 in0.0 mm 0.00 in0.0 mm 0.00 in0.0 mm
08:10 PM 41.0°F5.0°C 33.0°F0.6°C 73% 2.0 mph WSW3.2 kmh WSW 6.0 mph9.7 kmh 30.39 in1029.1 mb 0.00 in0.0 mm 0.00 in0.0 mm 0.00 in0.0 mm
08:15 PM 40.8°F4.9°C 32.8°F0.4°C 73% 2.2 mph WSW3.5 kmh WSW 6.0 mph9.7 kmh 30.38 in1028.8 mb 0.00 in0.0 mm 0.00 in0.0 mm 0.00 in0.0 mm
08:20 PM 40.8°F4.9°C 32.8°F0.4°C 73% 1.8 mph WSW2.9 kmh WSW 5.4 mph8.7 kmh 30.38 in1028.8 mb 0.00 in0.0 mm 0.00 in0.0 mm 0.00 in0.0 mm
08:25 PM 40.8°F4.9°C 32.8°F0.4°C 73% 1.2 mph WSW1.9 kmh WSW 5.4 mph8.7 kmh 30.38 in1028.8 mb 0.00 in0.0 mm 0.00 in0.0 mm 0.00 in0.0 mm
08:30 PM 40.8°F4.9°C 32.8°F0.4°C 73% 0.7 mph SW1.1 kmh SW 3.8 mph6.1 kmh 30.38 in1028.8 mb 0.00 in0.0 mm 0.00 in0.0 mm 0.00 in0.0 mm
08:35 PM 40.8°F4.9°C 32.8°F0.4°C 73% 0.6 mph SW1.0 kmh SW 3.1 mph5.0 kmh 30.38 in1028.8 mb 0.00 in0.0 mm 0.00 in0.0 mm 0.00 in0.0 mm
08:40 PM 40.6°F4.8°C 32.7°F0.4°C 73% 1.0 mph WSW1.6 kmh WSW 4.5 mph7.2 kmh 30.38 in1028.8 mb 0.00 in0.0 mm 0.00 in0.0 mm 0.00 in0.0 mm
08:45 PM 40.5°F4.7°C 32.8°F0.4°C 74% 1.2 mph W1.9 kmh W 4.5 mph7.2 kmh 30.38 in1028.8 mb 0.00 in0.0 mm 0.00 in0.0 mm 0.00 in0.0 mm
08:50 PM 40.3°F4.6°C 32.7°F0.4°C 74% 1.4 mph WSW2.3 kmh WSW 4.5 mph7.2 kmh 30.38 in1028.8 mb 0.00 in0.0 mm 0.00 in0.0 mm 0.00 in0.0 mm
08:55 PM 40.1°F4.5°C 32.5°F0.3°C 74% 1.1 mph SW1.8 kmh SW 4.5 mph7.2 kmh 30.38 in1028.8 mb 0.00 in0.0 mm 0.00 in0.0 mm 0.00 in0.0 mm
09:00 PM 39.4°F4.1°C 32.1°F0.1°C 75% 0.8 mph SE1.3 kmh SE 3.1 mph5.0 kmh 30.38 in1028.8 mb 0.00 in0.0 mm 0.00 in0.0 mm 0.00 in0.0 mm
09:05 PM 39.0°F3.9°C 32.1°F0.1°C 76% 0.5 mph SE0.8 kmh SE 3.1 mph5.0 kmh 30.38 in1028.8 mb 0.00 in0.0 mm 0.00 in0.0 mm 0.00 in0.0 mm
09:10 PM 39.2°F4.0°C 32.3°F0.2°C 76% Calm Calm 1.6 mph2.6 kmh 30.38 in1028.8 mb 0.00 in0.0 mm 0.00 in0.0 mm 0.00 in0.0 mm
09:15 PM 39.4°F4.1°C 32.5°F0.3°C 76% 0.8 mph SW1.3 kmh SW 5.4 mph8.7 kmh 30.38 in1028.8 mb 0.00 in0.0 mm 0.00 in0.0 mm 0.00 in0.0 mm
09:20 PM 39.6°F4.2°C 32.3°F0.2°C 75% 1.5 mph WSW2.4 kmh WSW 6.0 mph9.7 kmh 30.37 in1028.4 mb 0.00 in0.0 mm 0.00 in0.0 mm 0.00 in0.0 mm
09:25 PM 39.6°F4.2°C 32.3°F0.2°C 75% 2.0 mph W3.2 kmh W 6.9 mph11.1 kmh 30.38 in1028.8 mb 0.00 in0.0 mm 0.00 in0.0 mm 0.00 in0.0 mm
09:30 PM 39.7°F4.3°C 32.1°F0.1°C 74% 3.2 mph W5.1 kmh W 7.6 mph12.2 kmh 30.37 in1028.4 mb 0.00 in0.0 mm 0.00 in0.0 mm 0.00 in0.0 mm
09:35 PM 39.6°F4.2°C 32.0°F0.0°C 74% 3.2 mph W5.1 kmh W 7.6 mph12.2 kmh 30.38 in1028.8 mb 0.00 in0.0 mm 0.00 in0.0 mm 0.00 in0.0 mm
09:40 PM 39.6°F4.2°C 32.0°F0.0°C 74% 2.5 mph WSW4.0 kmh WSW 7.6 mph12.2 kmh 30.37 in1028.4 mb 0.00 in0.0 mm 0.00 in0.0 mm 0.00 in0.0 mm
09:45 PM 39.2°F4.0°C 31.6°F-0.2°C 74% 2.0 mph WSW3.2 kmh WSW 7.6 mph12.2 kmh 30.37 in1028.4 mb 0.00 in0.0 mm 0.00 in0.0 mm 0.00 in0.0 mm
09:50 PM 39.0°F3.9°C 31.8°F-0.1°C 75% 2.0 mph SW3.2 kmh SW 5.4 mph8.7 kmh 30.37 in1028.4 mb 0.00 in0.0 mm 0.00 in0.0 mm 0.00 in0.0 mm
09:55 PM 38.7°F3.7°C 31.4°F-0.3°C 75% 2.2 mph WSW3.5 kmh WSW 5.4 mph8.7 kmh 30.37 in1028.4 mb 0.00 in0.0 mm 0.00 in0.0 mm 0.00 in0.0 mm
10:00 PM 38.8°F3.8°C 31.6°F-0.2°C 75% 2.3 mph W3.7 kmh W 6.0 mph9.7 kmh 30.37 in1028.4 mb 0.00 in0.0 mm 0.00 in0.0 mm 0.00 in0.0 mm
10:05 PM 39.0°F3.9°C 31.8°F-0.1°C 75% 2.6 mph WSW4.2 kmh WSW 6.0 mph9.7 kmh 30.38 in1028.8 mb 0.00 in0.0 mm 0.00 in0.0 mm 0.00 in0.0 mm
10:10 PM 39.2°F4.0°C 32.0°F0.0°C 75% 2.5 mph WSW4.0 kmh WSW 6.0 mph9.7 kmh 30.37 in1028.4 mb 0.00 in0.0 mm 0.00 in0.0 mm 0.00 in0.0 mm
10:15 PM 39.2°F4.0°C 32.0°F0.0°C 75% 2.0 mph WSW3.2 kmh WSW 5.4 mph8.7 kmh 30.37 in1028.4 mb 0.00 in0.0 mm 0.00 in0.0 mm 0.00 in0.0 mm
10:20 PM 39.2°F4.0°C 32.0°F0.0°C 75% 1.6 mph SW2.6 kmh SW 4.5 mph7.2 kmh 30.37 in1028.4 mb 0.00 in0.0 mm 0.00 in0.0 mm 0.00 in0.0 mm
10:25 PM 39.0°F3.9°C 31.8°F-0.1°C 75% 1.5 mph WSW2.4 kmh WSW 4.5 mph7.2 kmh 30.37 in1028.4 mb 0.00 in0.0 mm 0.00 in0.0 mm 0.00 in0.0 mm
10:30 PM 38.8°F3.8°C 31.6°F-0.2°C 75% 1.4 mph WSW2.3 kmh WSW 4.5 mph7.2 kmh 30.37 in1028.4 mb 0.00 in0.0 mm 0.00 in0.0 mm 0.00 in0.0 mm
10:35 PM 38.5°F3.6°C 31.3°F-0.4°C 75% 1.5 mph WSW2.4 kmh WSW 4.5 mph7.2 kmh 30.37 in1028.4 mb 0.00 in0.0 mm 0.00 in0.0 mm 0.00 in0.0 mm
10:40 PM 38.5°F3.6°C 31.6°F-0.2°C 76% 1.3 mph WSW2.1 kmh WSW 4.5 mph7.2 kmh 30.37 in1028.4 mb 0.00 in0.0 mm 0.00 in0.0 mm 0.00 in0.0 mm
10:45 PM 38.7°F3.7°C 31.8°F-0.1°C 76% 1.3 mph WSW2.1 kmh WSW 4.5 mph7.2 kmh 30.37 in1028.4 mb 0.00 in0.0 mm 0.00 in0.0 mm 0.00 in0.0 mm
10:50 PM 38.8°F3.8°C 31.6°F-0.2°C 75% 1.2 mph W1.9 kmh W 4.5 mph7.2 kmh 30.37 in1028.4 mb 0.00 in0.0 mm 0.00 in0.0 mm 0.00 in0.0 mm
10:55 PM 39.0°F3.9°C 31.8°F-0.1°C 75% 1.2 mph WSW1.9 kmh WSW 4.5 mph7.2 kmh 30.37 in1028.4 mb 0.00 in0.0 mm 0.00 in0.0 mm 0.00 in0.0 mm
11:00 PM 39.0°F3.9°C 31.4°F-0.3°C 74% 1.1 mph WSW1.8 kmh WSW 4.5 mph7.2 kmh 30.38 in1028.8 mb 0.00 in0.0 mm 0.00 in0.0 mm 0.00 in0.0 mm
11:05 PM 39.0°F3.9°C 31.8°F-0.1°C 75% 0.7 mph WSW1.1 kmh WSW 3.8 mph6.1 kmh 30.37 in1028.4 mb 0.00 in0.0 mm 0.00 in0.0 mm 0.00 in0.0 mm
11:10 PM 39.0°F3.9°C 31.8°F-0.1°C 75% 0.8 mph WSW1.3 kmh WSW 3.8 mph6.1 kmh 30.37 in1028.4 mb 0.00 in0.0 mm 0.00 in0.0 mm 0.00 in0.0 mm
11:15 PM 39.2°F4.0°C 31.6°F-0.2°C 74% 1.0 mph WSW1.6 kmh WSW 3.8 mph6.1 kmh 30.38 in1028.8 mb 0.00 in0.0 mm 0.00 in0.0 mm 0.00 in0.0 mm
11:20 PM 39.0°F3.9°C 31.4°F-0.3°C 74% 0.5 mph WSW0.8 kmh WSW 3.8 mph6.1 kmh 30.38 in1028.8 mb 0.00 in0.0 mm 0.00 in0.0 mm 0.00 in0.0 mm
11:25 PM 37.0°F2.8°C 30.2°F-1.0°C 76% 0.5 mph S0.8 kmh S 2.2 mph3.5 kmh 30.37 in1028.4 mb 0.00 in0.0 mm 0.00 in0.0 mm 0.00 in0.0 mm
11:30 PM 35.8°F2.1°C 29.9°F-1.2°C 79% 0.9 mph SE1.4 kmh SE 2.2 mph3.5 kmh 30.38 in1028.8 mb 0.00 in0.0 mm 0.00 in0.0 mm 0.00 in0.0 mm
11:35 PM 36.0°F2.2°C 30.7°F-0.7°C 81% 0.7 mph SSE1.1 kmh SSE 2.2 mph3.5 kmh 30.38 in1028.8 mb 0.00 in0.0 mm 0.00 in0.0 mm 0.00 in0.0 mm
11:40 PM 36.1°F2.3°C 30.9°F-0.6°C 81% 0.6 mph SW1.0 kmh SW 3.1 mph5.0 kmh 30.37 in1028.4 mb 0.00 in0.0 mm 0.00 in0.0 mm 0.00 in0.0 mm
11:45 PM 36.3°F2.4°C 31.1°F-0.5°C 81% 0.6 mph WSW1.0 kmh WSW 3.1 mph5.0 kmh 30.37 in1028.4 mb 0.00 in0.0 mm 0.00 in0.0 mm 0.00 in0.0 mm
11:50 PM 36.3°F2.4°C 31.1°F-0.5°C 81% 0.7 mph SW1.1 kmh SW 3.8 mph6.1 kmh 30.37 in1028.4 mb 0.00 in0.0 mm 0.00 in0.0 mm 0.00 in0.0 mm
11:55 PM 36.5°F2.5°C 30.9°F-0.6°C 80% 0.6 mph SW1.0 kmh SW 3.8 mph6.1 kmh 30.37 in1028.4 mb 0.00 in0.0 mm 0.00 in0.0 mm 0.00 in0.0 mm